sensor_id;sensor_type;location;lat;lon;timestamp;P1;durP1;ratioP1;P2;durP2;ratioP2
64791;SDS011;51226;47.504;19.074;2022-11-23T00:04:22;19.10;;;12.90;;
64791;SDS011;51226;47.504;19.074;2022-11-23T00:07:27;20.08;;;13.43;;
64791;SDS011;51226;47.504;19.074;2022-11-23T00:10:30;17.08;;;11.93;;
64791;SDS011;51226;47.504;19.074;2022-11-23T00:13:33;20.15;;;12.85;;
64791;SDS011;51226;47.504;19.074;2022-11-23T00:16:36;19.23;;;13.23;;
64791;SDS011;51226;47.504;19.074;2022-11-23T00:19:39;17.42;;;12.02;;
64791;SDS011;51226;47.504;19.074;2022-11-23T00:22:42;31.00;;;19.52;;
64791;SDS011;51226;47.504;19.074;2022-11-23T00:25:45;22.15;;;13.65;;
64791;SDS011;51226;47.504;19.074;2022-11-23T00:28:48;18.30;;;12.50;;
64791;SDS011;51226;47.504;19.074;2022-11-23T00:31:51;16.37;;;11.43;;
64791;SDS011;51226;47.504;19.074;2022-11-23T00:34:54;19.20;;;11.27;;
64791;SDS011;51226;47.504;19.074;2022-11-23T00:37:57;14.15;;;10.93;;
64791;SDS011;51226;47.504;19.074;2022-11-23T00:41:02;18.20;;;10.80;;
64791;SDS011;51226;47.504;19.074;2022-11-23T00:44:07;14.95;;;10.50;;
64791;SDS011;51226;47.504;19.074;2022-11-23T00:47:09;15.68;;;11.02;;
64791;SDS011;51226;47.504;19.074;2022-11-23T00:50:12;13.23;;;9.95;;
64791;SDS011;51226;47.504;19.074;2022-11-23T00:53:16;15.88;;;12.13;;
64791;SDS011;51226;47.504;19.074;2022-11-23T00:56:19;15.05;;;10.52;;
64791;SDS011;51226;47.504;19.074;2022-11-23T00:59:22;16.70;;;13.15;;
64791;SDS011;51226;47.504;19.074;2022-11-23T01:02:25;15.52;;;10.63;;
64791;SDS011;51226;47.504;19.074;2022-11-23T01:05:28;17.15;;;11.15;;
64791;SDS011;51226;47.504;19.074;2022-11-23T01:08:33;15.65;;;10.93;;
64791;SDS011;51226;47.504;19.074;2022-11-23T01:11:36;13.48;;;10.32;;
64791;SDS011;51226;47.504;19.074;2022-11-23T01:14:39;16.33;;;11.55;;
64791;SDS011;51226;47.504;19.074;2022-11-23T01:17:42;14.73;;;9.88;;
64791;SDS011;51226;47.504;19.074;2022-11-23T01:20:44;15.88;;;10.82;;
64791;SDS011;51226;47.504;19.074;2022-11-23T01:23:47;13.62;;;9.98;;
64791;SDS011;51226;47.504;19.074;2022-11-23T01:26:50;13.82;;;10.65;;
64791;SDS011;51226;47.504;19.074;2022-11-23T01:29:54;14.52;;;10.40;;
64791;SDS011;51226;47.504;19.074;2022-11-23T01:32:57;13.62;;;10.13;;
64791;SDS011;51226;47.504;19.074;2022-11-23T01:36:00;14.15;;;10.52;;
64791;SDS011;51226;47.504;19.074;2022-11-23T01:39:10;15.48;;;11.43;;
64791;SDS011;51226;47.504;19.074;2022-11-23T01:42:14;18.37;;;12.88;;
64791;SDS011;51226;47.504;19.074;2022-11-23T01:45:39;18.10;;;11.45;;
64791;SDS011;51226;47.504;19.074;2022-11-23T01:48:51;18.73;;;13.30;;
64791;SDS011;51226;47.504;19.074;2022-11-23T01:52:00;16.60;;;10.98;;
64791;SDS011;51226;47.504;19.074;2022-11-23T01:55:07;19.42;;;12.37;;
64791;SDS011;51226;47.504;19.074;2022-11-23T01:58:11;17.12;;;11.35;;
64791;SDS011;51226;47.504;19.074;2022-11-23T02:01:16;17.48;;;11.25;;
64791;SDS011;51226;47.504;19.074;2022-11-23T02:04:24;15.75;;;11.65;;
64791;SDS011;51226;47.504;19.074;2022-11-23T02:07:32;19.90;;;11.17;;
64791;SDS011;51226;47.504;19.074;2022-11-23T02:10:36;17.45;;;12.80;;
64791;SDS011;51226;47.504;19.074;2022-11-23T02:13:45;15.35;;;13.02;;
64791;SDS011;51226;47.504;19.074;2022-11-23T02:16:50;14.98;;;11.85;;
64791;SDS011;51226;47.504;19.074;2022-11-23T02:20:00;15.15;;;10.98;;
64791;SDS011;51226;47.504;19.074;2022-11-23T02:23:14;16.80;;;10.85;;
64791;SDS011;51226;47.504;19.074;2022-11-23T02:26:26;17.27;;;11.23;;
64791;SDS011;51226;47.504;19.074;2022-11-23T02:29:36;17.62;;;12.15;;
64791;SDS011;51226;47.504;19.074;2022-11-23T02:32:39;16.55;;;11.05;;
64791;SDS011;51226;47.504;19.074;2022-11-23T02:35:47;18.00;;;14.87;;
64791;SDS011;51226;47.504;19.074;2022-11-23T02:38:51;20.08;;;12.20;;
64791;SDS011;51226;47.504;19.074;2022-11-23T02:41:56;19.37;;;15.52;;
64791;SDS011;51226;47.504;19.074;2022-11-23T02:48:25;20.40;;;17.15;;
64791;SDS011;51226;47.504;19.074;2022-11-23T02:51:28;23.70;;;18.55;;
64791;SDS011;51226;47.504;19.074;2022-11-23T02:54:31;20.75;;;15.65;;
64791;SDS011;51226;47.504;19.074;2022-11-23T02:57:34;25.35;;;19.10;;
64791;SDS011;51226;47.504;19.074;2022-11-23T03:00:36;24.75;;;17.27;;
64791;SDS011;51226;47.504;19.074;2022-11-23T03:03:40;20.17;;;15.38;;
64791;SDS011;51226;47.504;19.074;2022-11-23T03:06:42;20.45;;;15.13;;
64791;SDS011;51226;47.504;19.074;2022-11-23T03:09:46;24.87;;;19.65;;
64791;SDS011;51226;47.504;19.074;2022-11-23T03:12:52;29.02;;;18.90;;
64791;SDS011;51226;47.504;19.074;2022-11-23T03:15:55;18.70;;;15.43;;
64791;SDS011;51226;47.504;19.074;2022-11-23T03:19:01;20.50;;;12.82;;
64791;SDS011;51226;47.504;19.074;2022-11-23T03:22:22;17.25;;;11.90;;
64791;SDS011;51226;47.504;19.074;2022-11-23T03:25:28;18.92;;;14.55;;
64791;SDS011;51226;47.504;19.074;2022-11-23T03:28:31;17.12;;;12.00;;
64791;SDS011;51226;47.504;19.074;2022-11-23T03:31:34;18.02;;;12.00;;
64791;SDS011;51226;47.504;19.074;2022-11-23T03:34:38;15.90;;;13.45;;
64791;SDS011;51226;47.504;19.074;2022-11-23T03:37:42;18.08;;;14.70;;
64791;SDS011;51226;47.504;19.074;2022-11-23T03:40:45;18.00;;;11.93;;
64791;SDS011;51226;47.504;19.074;2022-11-23T03:43:48;17.85;;;12.27;;
64791;SDS011;51226;47.504;19.074;2022-11-23T03:46:51;16.85;;;12.07;;
64791;SDS011;51226;47.504;19.074;2022-11-23T03:49:54;22.65;;;13.45;;
64791;SDS011;51226;47.504;19.074;2022-11-23T03:52:57;16.55;;;11.77;;
64791;SDS011;51226;47.504;19.074;2022-11-23T03:56:03;16.75;;;11.12;;
64791;SDS011;51226;47.504;19.074;2022-11-23T03:59:08;14.23;;;10.20;;
64791;SDS011;51226;47.504;19.074;2022-11-23T04:02:11;17.35;;;10.77;;
64791;SDS011;51226;47.504;19.074;2022-11-23T04:05:15;14.35;;;11.48;;
64791;SDS011;51226;47.504;19.074;2022-11-23T04:08:21;14.32;;;9.55;;
64791;SDS011;51226;47.504;19.074;2022-11-23T04:11:24;15.38;;;10.15;;
64791;SDS011;51226;47.504;19.074;2022-11-23T04:14:27;14.02;;;9.60;;
64791;SDS011;51226;47.504;19.074;2022-11-23T04:17:30;15.93;;;11.65;;
64791;SDS011;51226;47.504;19.074;2022-11-23T04:20:33;14.57;;;9.25;;
64791;SDS011;51226;47.504;19.074;2022-11-23T04:23:36;10.43;;;8.13;;
64791;SDS011;51226;47.504;19.074;2022-11-23T04:29:42;10.35;;;7.55;;
64791;SDS011;51226;47.504;19.074;2022-11-23T04:32:45;11.45;;;9.00;;
64791;SDS011;51226;47.504;19.074;2022-11-23T04:35:49;12.05;;;8.40;;
64791;SDS011;51226;47.504;19.074;2022-11-23T04:38:52;12.18;;;7.37;;
64791;SDS011;51226;47.504;19.074;2022-11-23T04:41:55;10.52;;;8.25;;
64791;SDS011;51226;47.504;19.074;2022-11-23T04:44:58;10.45;;;7.65;;
64791;SDS011;51226;47.504;19.074;2022-11-23T04:48:01;11.10;;;7.37;;
64791;SDS011;51226;47.504;19.074;2022-11-23T04:51:04;11.85;;;7.18;;
64791;SDS011;51226;47.504;19.074;2022-11-23T04:57:12;8.38;;;6.07;;
64791;SDS011;51226;47.504;19.074;2022-11-23T05:00:16;9.43;;;6.35;;
64791;SDS011;51226;47.504;19.074;2022-11-23T05:03:20;8.18;;;6.93;;
64791;SDS011;51226;47.504;19.074;2022-11-23T05:06:23;9.27;;;6.65;;
64791;SDS011;51226;47.504;19.074;2022-11-23T05:09:26;7.32;;;5.57;;
64791;SDS011;51226;47.504;19.074;2022-11-23T05:12:30;8.05;;;7.25;;
64791;SDS011;51226;47.504;19.074;2022-11-23T05:15:33;8.70;;;7.22;;
64791;SDS011;51226;47.504;19.074;2022-11-23T05:18:37;7.97;;;7.18;;
64791;SDS011;51226;47.504;19.074;2022-11-23T05:21:40;7.50;;;5.85;;
64791;SDS011;51226;47.504;19.074;2022-11-23T05:24:42;7.03;;;6.00;;
64791;SDS011;51226;47.504;19.074;2022-11-23T05:27:46;8.20;;;6.12;;
64791;SDS011;51226;47.504;19.074;2022-11-23T05:30:49;8.00;;;6.18;;
64791;SDS011;51226;47.504;19.074;2022-11-23T05:33:52;8.40;;;6.43;;
64791;SDS011;51226;47.504;19.074;2022-11-23T05:36:56;9.02;;;6.43;;
64791;SDS011;51226;47.504;19.074;2022-11-23T05:39:59;10.40;;;6.45;;
64791;SDS011;51226;47.504;19.074;2022-11-23T05:43:03;8.70;;;6.15;;
64791;SDS011;51226;47.504;19.074;2022-11-23T05:46:06;8.45;;;5.93;;
64791;SDS011;51226;47.504;19.074;2022-11-23T05:52:13;7.55;;;6.18;;
64791;SDS011;51226;47.504;19.074;2022-11-23T05:55:18;11.23;;;7.22;;
64791;SDS011;51226;47.504;19.074;2022-11-23T05:58:22;10.65;;;8.20;;
64791;SDS011;51226;47.504;19.074;2022-11-23T06:01:25;10.80;;;7.85;;
64791;SDS011;51226;47.504;19.074;2022-11-23T06:04:30;12.35;;;7.85;;
64791;SDS011;51226;47.504;19.074;2022-11-23T06:07:33;12.43;;;8.75;;
64791;SDS011;51226;47.504;19.074;2022-11-23T06:10:37;10.82;;;7.72;;
64791;SDS011;51226;47.504;19.074;2022-11-23T06:13:39;9.73;;;8.07;;
64791;SDS011;51226;47.504;19.074;2022-11-23T06:16:43;9.65;;;7.90;;
64791;SDS011;51226;47.504;19.074;2022-11-23T06:19:46;14.23;;;9.63;;
64791;SDS011;51226;47.504;19.074;2022-11-23T06:22:52;14.05;;;11.45;;
64791;SDS011;51226;47.504;19.074;2022-11-23T06:25:59;14.80;;;10.93;;
64791;SDS011;51226;47.504;19.074;2022-11-23T06:29:03;13.98;;;10.73;;
64791;SDS011;51226;47.504;19.074;2022-11-23T06:32:05;12.63;;;8.77;;
64791;SDS011;51226;47.504;19.074;2022-11-23T06:35:10;11.48;;;8.73;;
64791;SDS011;51226;47.504;19.074;2022-11-23T06:38:13;14.45;;;9.30;;
64791;SDS011;51226;47.504;19.074;2022-11-23T06:41:16;10.13;;;7.80;;
64791;SDS011;51226;47.504;19.074;2022-11-23T06:44:20;11.20;;;8.98;;
64791;SDS011;51226;47.504;19.074;2022-11-23T06:47:23;13.25;;;9.23;;
64791;SDS011;51226;47.504;19.074;2022-11-23T06:50:28;13.02;;;11.20;;
64791;SDS011;51226;47.504;19.074;2022-11-23T06:53:31;10.38;;;8.00;;
64791;SDS011;51226;47.504;19.074;2022-11-23T06:56:34;13.48;;;8.75;;
64791;SDS011;51226;47.504;19.074;2022-11-23T07:02:50;13.55;;;8.63;;
64791;SDS011;51226;47.504;19.074;2022-11-23T07:05:55;12.30;;;8.90;;
64791;SDS011;51226;47.504;19.074;2022-11-23T07:08:58;13.05;;;10.57;;
64791;SDS011;51226;47.504;19.074;2022-11-23T07:12:02;16.58;;;11.10;;
64791;SDS011;51226;47.504;19.074;2022-11-23T07:15:05;13.73;;;9.25;;
64791;SDS011;51226;47.504;19.074;2022-11-23T07:18:10;15.23;;;9.40;;
64791;SDS011;51226;47.504;19.074;2022-11-23T07:21:14;12.35;;;10.02;;
64791;SDS011;51226;47.504;19.074;2022-11-23T07:24:18;12.30;;;9.25;;
64791;SDS011;51226;47.504;19.074;2022-11-23T07:27:20;16.90;;;9.57;;
64791;SDS011;51226;47.504;19.074;2022-11-23T07:30:24;12.55;;;9.95;;
64791;SDS011;51226;47.504;19.074;2022-11-23T07:33:31;11.23;;;8.55;;
64791;SDS011;51226;47.504;19.074;2022-11-23T07:36:34;11.88;;;9.15;;
64791;SDS011;51226;47.504;19.074;2022-11-23T07:39:36;11.17;;;8.93;;
64791;SDS011;51226;47.504;19.074;2022-11-23T07:43:00;11.77;;;8.30;;
64791;SDS011;51226;47.504;19.074;2022-11-23T07:46:05;12.30;;;8.27;;
64791;SDS011;51226;47.504;19.074;2022-11-23T07:52:10;11.68;;;8.07;;
64791;SDS011;51226;47.504;19.074;2022-11-23T07:55:13;10.43;;;8.02;;
64791;SDS011;51226;47.504;19.074;2022-11-23T07:58:16;9.30;;;7.53;;
64791;SDS011;51226;47.504;19.074;2022-11-23T08:01:20;12.57;;;9.27;;
64791;SDS011;51226;47.504;19.074;2022-11-23T08:04:23;11.82;;;8.82;;
64791;SDS011;51226;47.504;19.074;2022-11-23T08:07:26;10.38;;;7.55;;
64791;SDS011;51226;47.504;19.074;2022-11-23T08:10:29;12.68;;;8.82;;
64791;SDS011;51226;47.504;19.074;2022-11-23T08:13:33;9.43;;;6.82;;
64791;SDS011;51226;47.504;19.074;2022-11-23T08:16:36;10.80;;;7.82;;
64791;SDS011;51226;47.504;19.074;2022-11-23T08:19:39;10.13;;;7.68;;
64791;SDS011;51226;47.504;19.074;2022-11-23T08:22:42;10.40;;;7.32;;
64791;SDS011;51226;47.504;19.074;2022-11-23T08:28:48;10.85;;;7.62;;
64791;SDS011;51226;47.504;19.074;2022-11-23T08:31:54;9.82;;;7.28;;
64791;SDS011;51226;47.504;19.074;2022-11-23T08:38:00;10.50;;;8.00;;
64791;SDS011;51226;47.504;19.074;2022-11-23T08:41:03;8.98;;;7.20;;
64791;SDS011;51226;47.504;19.074;2022-11-23T08:44:07;13.45;;;8.80;;
64791;SDS011;51226;47.504;19.074;2022-11-23T08:47:12;11.88;;;8.85;;
64791;SDS011;51226;47.504;19.074;2022-11-23T08:50:15;8.43;;;7.20;;
64791;SDS011;51226;47.504;19.074;2022-11-23T08:53:19;11.48;;;8.45;;
64791;SDS011;51226;47.504;19.074;2022-11-23T08:56:22;10.52;;;8.07;;
64791;SDS011;51226;47.504;19.074;2022-11-23T08:59:25;11.05;;;7.87;;
64791;SDS011;51226;47.504;19.074;2022-11-23T09:02:28;11.90;;;8.00;;
64791;SDS011;51226;47.504;19.074;2022-11-23T09:05:31;14.70;;;8.77;;
64791;SDS011;51226;47.504;19.074;2022-11-23T09:11:37;9.50;;;7.43;;
64791;SDS011;51226;47.504;19.074;2022-11-23T09:14:40;11.35;;;7.47;;
64791;SDS011;51226;47.504;19.074;2022-11-23T09:17:43;10.63;;;7.50;;
64791;SDS011;51226;47.504;19.074;2022-11-23T09:20:46;9.70;;;7.20;;
64791;SDS011;51226;47.504;19.074;2022-11-23T09:23:49;10.95;;;8.13;;
64791;SDS011;51226;47.504;19.074;2022-11-23T09:26:52;9.32;;;7.07;;
64791;SDS011;51226;47.504;19.074;2022-11-23T09:29:55;15.35;;;11.80;;
64791;SDS011;51226;47.504;19.074;2022-11-23T09:32:57;11.05;;;8.40;;
64791;SDS011;51226;47.504;19.074;2022-11-23T09:36:01;11.88;;;8.73;;
64791;SDS011;51226;47.504;19.074;2022-11-23T09:39:05;8.38;;;7.53;;
64791;SDS011;51226;47.504;19.074;2022-11-23T09:49:05;11.48;;;7.62;;
64791;SDS011;51226;47.504;19.074;2022-11-23T09:52:22;9.23;;;6.97;;
64791;SDS011;51226;47.504;19.074;2022-11-23T09:58:39;10.52;;;6.97;;
64791;SDS011;51226;47.504;19.074;2022-11-23T10:01:42;10.20;;;7.45;;
64791;SDS011;51226;47.504;19.074;2022-11-23T10:04:45;8.95;;;6.60;;
64791;SDS011;51226;47.504;19.074;2022-11-23T10:07:52;8.83;;;5.70;;
64791;SDS011;51226;47.504;19.074;2022-11-23T10:18:29;10.38;;;7.07;;
64791;SDS011;51226;47.504;19.074;2022-11-23T10:25:17;9.65;;;6.75;;
64791;SDS011;51226;47.504;19.074;2022-11-23T10:28:21;7.57;;;6.70;;
64791;SDS011;51226;47.504;19.074;2022-11-23T10:31:26;8.90;;;7.07;;
64791;SDS011;51226;47.504;19.074;2022-11-23T10:34:41;10.52;;;7.20;;
64791;SDS011;51226;47.504;19.074;2022-11-23T10:37:50;9.07;;;6.15;;
64791;SDS011;51226;47.504;19.074;2022-11-23T10:41:02;9.75;;;6.70;;
64791;SDS011;51226;47.504;19.074;2022-11-23T10:47:37;8.20;;;6.53;;
64791;SDS011;51226;47.504;19.074;2022-11-23T10:50:50;8.48;;;6.90;;
64791;SDS011;51226;47.504;19.074;2022-11-23T10:53:54;5.67;;;5.17;;
64791;SDS011;51226;47.504;19.074;2022-11-23T11:00:23;10.40;;;6.40;;
64791;SDS011;51226;47.504;19.074;2022-11-23T11:03:33;8.88;;;6.00;;
64791;SDS011;51226;47.504;19.074;2022-11-23T11:06:37;7.45;;;6.07;;
64791;SDS011;51226;47.504;19.074;2022-11-23T11:09:40;6.80;;;6.03;;
64791;SDS011;51226;47.504;19.074;2022-11-23T11:12:49;7.57;;;6.77;;
64791;SDS011;51226;47.504;19.074;2022-11-23T11:16:03;7.00;;;6.30;;
64791;SDS011;51226;47.504;19.074;2022-11-23T11:22:34;7.53;;;6.10;;
64791;SDS011;51226;47.504;19.074;2022-11-23T11:25:38;8.50;;;6.20;;
64791;SDS011;51226;47.504;19.074;2022-11-23T11:28:41;7.18;;;6.22;;
64791;SDS011;51226;47.504;19.074;2022-11-23T11:31:52;7.32;;;6.37;;
64791;SDS011;51226;47.504;19.074;2022-11-23T11:38:13;8.50;;;6.43;;
64791;SDS011;51226;47.504;19.074;2022-11-23T11:41:26;7.93;;;7.12;;
64791;SDS011;51226;47.504;19.074;2022-11-23T11:44:30;7.28;;;5.97;;
64791;SDS011;51226;47.504;19.074;2022-11-23T11:47:40;6.78;;;6.12;;
64791;SDS011;51226;47.504;19.074;2022-11-23T11:50:58;9.80;;;7.00;;
64791;SDS011;51226;47.504;19.074;2022-11-23T11:54:10;9.02;;;6.80;;
64791;SDS011;51226;47.504;19.074;2022-11-23T11:57:34;9.43;;;7.07;;
64791;SDS011;51226;47.504;19.074;2022-11-23T12:00:45;8.95;;;6.53;;
64791;SDS011;51226;47.504;19.074;2022-11-23T12:03:51;9.18;;;7.03;;
64791;SDS011;51226;47.504;19.074;2022-11-23T12:07:03;8.13;;;7.05;;
64791;SDS011;51226;47.504;19.074;2022-11-23T12:10:20;10.63;;;7.35;;
64791;SDS011;51226;47.504;19.074;2022-11-23T12:13:33;10.80;;;8.70;;
64791;SDS011;51226;47.504;19.074;2022-11-23T12:27:02;8.50;;;6.35;;
64791;SDS011;51226;47.504;19.074;2022-11-23T12:30:16;7.97;;;6.15;;
64791;SDS011;51226;47.504;19.074;2022-11-23T13:00:36;10.00;;;8.07;;
64791;SDS011;51226;47.504;19.074;2022-11-23T13:24:33;7.20;;;6.47;;
64791;SDS011;51226;47.504;19.074;2022-11-23T13:27:40;7.60;;;6.60;;
64791;SDS011;51226;47.504;19.074;2022-11-23T13:31:16;8.32;;;6.37;;
64791;SDS011;51226;47.504;19.074;2022-11-23T13:40:58;7.45;;;6.37;;
64791;SDS011;51226;47.504;19.074;2022-11-23T13:47:20;10.73;;;6.93;;
64791;SDS011;51226;47.504;19.074;2022-11-23T13:50:23;7.78;;;6.55;;
64791;SDS011;51226;47.504;19.074;2022-11-23T13:53:37;7.43;;;6.00;;
64791;SDS011;51226;47.504;19.074;2022-11-23T13:56:42;5.80;;;5.10;;
64791;SDS011;51226;47.504;19.074;2022-11-23T13:59:46;7.95;;;6.07;;
64791;SDS011;51226;47.504;19.074;2022-11-23T14:02:49;7.93;;;6.68;;
64791;SDS011;51226;47.504;19.074;2022-11-23T14:05:52;10.00;;;7.22;;
64791;SDS011;51226;47.504;19.074;2022-11-23T14:09:05;9.55;;;7.45;;
64791;SDS011;51226;47.504;19.074;2022-11-23T14:12:22;10.60;;;6.75;;
64791;SDS011;51226;47.504;19.074;2022-11-23T14:15:31;8.95;;;6.53;;
64791;SDS011;51226;47.504;19.074;2022-11-23T14:28:31;9.88;;;7.47;;
64791;SDS011;51226;47.504;19.074;2022-11-23T14:31:47;6.82;;;6.10;;
64791;SDS011;51226;47.504;19.074;2022-11-23T14:42:22;9.25;;;7.18;;
64791;SDS011;51226;47.504;19.074;2022-11-23T14:45:30;14.77;;;10.18;;
64791;SDS011;51226;47.504;19.074;2022-11-23T14:48:35;12.27;;;8.23;;
64791;SDS011;51226;47.504;19.074;2022-11-23T14:51:40;9.15;;;5.82;;
64791;SDS011;51226;47.504;19.074;2022-11-23T14:54:51;8.63;;;7.15;;
64791;SDS011;51226;47.504;19.074;2022-11-23T14:58:01;9.18;;;6.72;;
64791;SDS011;51226;47.504;19.074;2022-11-23T15:01:08;7.35;;;6.62;;
64791;SDS011;51226;47.504;19.074;2022-11-23T15:04:22;7.22;;;6.50;;
64791;SDS011;51226;47.504;19.074;2022-11-23T15:07:45;8.43;;;6.37;;
64791;SDS011;51226;47.504;19.074;2022-11-23T15:14:16;7.68;;;6.80;;
64791;SDS011;51226;47.504;19.074;2022-11-23T15:17:24;11.57;;;9.02;;
64791;SDS011;51226;47.504;19.074;2022-11-23T15:23:34;10.18;;;7.78;;
64791;SDS011;51226;47.504;19.074;2022-11-23T15:26:43;24.45;;;17.92;;
64791;SDS011;51226;47.504;19.074;2022-11-23T15:29:52;18.90;;;14.15;;
64791;SDS011;51226;47.504;19.074;2022-11-23T15:32:57;11.52;;;10.32;;
64791;SDS011;51226;47.504;19.074;2022-11-23T15:36:03;9.77;;;7.87;;
64791;SDS011;51226;47.504;19.074;2022-11-23T15:39:06;10.23;;;8.43;;
64791;SDS011;51226;47.504;19.074;2022-11-23T15:42:16;9.10;;;8.15;;
64791;SDS011;51226;47.504;19.074;2022-11-23T15:48:47;9.00;;;8.00;;
64791;SDS011;51226;47.504;19.074;2022-11-23T15:51:51;9.32;;;8.32;;
64791;SDS011;51226;47.504;19.074;2022-11-23T15:55:04;9.65;;;8.65;;
64791;SDS011;51226;47.504;19.074;2022-11-23T15:58:15;9.10;;;7.68;;
64791;SDS011;51226;47.504;19.074;2022-11-23T16:01:20;15.07;;;12.37;;
64791;SDS011;51226;47.504;19.074;2022-11-23T16:04:34;24.17;;;19.30;;
64791;SDS011;51226;47.504;19.074;2022-11-23T16:07:57;14.05;;;11.73;;
64791;SDS011;51226;47.504;19.074;2022-11-23T16:11:02;11.60;;;9.88;;
64791;SDS011;51226;47.504;19.074;2022-11-23T16:14:09;15.35;;;10.70;;
64791;SDS011;51226;47.504;19.074;2022-11-23T16:17:21;29.58;;;22.58;;
64791;SDS011;51226;47.504;19.074;2022-11-23T16:20:26;19.70;;;16.90;;
64791;SDS011;51226;47.504;19.074;2022-11-23T16:23:35;12.23;;;10.75;;
64791;SDS011;51226;47.504;19.074;2022-11-23T16:26:48;10.02;;;8.73;;
64791;SDS011;51226;47.504;19.074;2022-11-23T16:32:58;9.75;;;8.48;;
64791;SDS011;51226;47.504;19.074;2022-11-23T16:36:01;10.27;;;7.57;;
64791;SDS011;51226;47.504;19.074;2022-11-23T16:39:04;10.23;;;8.20;;
64791;SDS011;51226;47.504;19.074;2022-11-23T16:42:10;11.12;;;8.88;;
64791;SDS011;51226;47.504;19.074;2022-11-23T16:45:17;10.73;;;8.70;;
64791;SDS011;51226;47.504;19.074;2022-11-23T16:51:26;11.25;;;10.05;;
64791;SDS011;51226;47.504;19.074;2022-11-23T16:54:29;11.35;;;9.43;;
64791;SDS011;51226;47.504;19.074;2022-11-23T16:57:32;12.52;;;10.18;;
64791;SDS011;51226;47.504;19.074;2022-11-23T17:00:36;13.13;;;11.02;;
64791;SDS011;51226;47.504;19.074;2022-11-23T17:03:39;13.13;;;11.43;;
64791;SDS011;51226;47.504;19.074;2022-11-23T17:06:42;14.25;;;11.43;;
64791;SDS011;51226;47.504;19.074;2022-11-23T17:09:45;14.82;;;11.43;;
64791;SDS011;51226;47.504;19.074;2022-11-23T17:12:49;14.30;;;12.20;;
64791;SDS011;51226;47.504;19.074;2022-11-23T17:15:54;17.48;;;11.15;;
64791;SDS011;51226;47.504;19.074;2022-11-23T17:18:57;16.45;;;11.50;;
64791;SDS011;51226;47.504;19.074;2022-11-23T17:22:00;13.98;;;11.77;;
64791;SDS011;51226;47.504;19.074;2022-11-23T17:25:03;31.83;;;21.77;;
64791;SDS011;51226;47.504;19.074;2022-11-23T17:28:14;16.75;;;13.40;;
64791;SDS011;51226;47.504;19.074;2022-11-23T17:31:18;13.77;;;11.70;;
64791;SDS011;51226;47.504;19.074;2022-11-23T17:34:21;14.13;;;11.50;;
64791;SDS011;51226;47.504;19.074;2022-11-23T17:37:24;12.13;;;10.82;;
64791;SDS011;51226;47.504;19.074;2022-11-23T17:40:27;16.15;;;11.57;;
64791;SDS011;51226;47.504;19.074;2022-11-23T17:43:30;15.43;;;11.82;;
64791;SDS011;51226;47.504;19.074;2022-11-23T17:46:33;13.93;;;11.57;;
64791;SDS011;51226;47.504;19.074;2022-11-23T17:49:37;15.45;;;12.20;;
64791;SDS011;51226;47.504;19.074;2022-11-23T17:52:39;15.43;;;10.90;;
64791;SDS011;51226;47.504;19.074;2022-11-23T17:55:45;15.02;;;13.43;;
64791;SDS011;51226;47.504;19.074;2022-11-23T17:58:49;16.37;;;14.15;;
64791;SDS011;51226;47.504;19.074;2022-11-23T18:01:54;18.77;;;13.98;;
64791;SDS011;51226;47.504;19.074;2022-11-23T18:04:58;19.62;;;16.15;;
64791;SDS011;51226;47.504;19.074;2022-11-23T18:08:01;18.80;;;16.00;;
64791;SDS011;51226;47.504;19.074;2022-11-23T18:11:04;20.40;;;15.73;;
64791;SDS011;51226;47.504;19.074;2022-11-23T18:14:07;19.45;;;16.67;;
64791;SDS011;51226;47.504;19.074;2022-11-23T18:17:10;19.92;;;16.20;;
64791;SDS011;51226;47.504;19.074;2022-11-23T18:20:12;17.52;;;14.77;;
64791;SDS011;51226;47.504;19.074;2022-11-23T18:23:17;19.58;;;15.93;;
64791;SDS011;51226;47.504;19.074;2022-11-23T18:26:21;17.58;;;15.38;;
64791;SDS011;51226;47.504;19.074;2022-11-23T18:29:27;17.08;;;14.90;;
64791;SDS011;51226;47.504;19.074;2022-11-23T18:32:30;17.70;;;14.83;;
64791;SDS011;51226;47.504;19.074;2022-11-23T18:35:33;24.90;;;20.77;;
64791;SDS011;51226;47.504;19.074;2022-11-23T18:38:36;20.30;;;15.32;;
64791;SDS011;51226;47.504;19.074;2022-11-23T18:41:39;22.85;;;18.70;;
64791;SDS011;51226;47.504;19.074;2022-11-23T18:44:42;17.73;;;15.40;;
64791;SDS011;51226;47.504;19.074;2022-11-23T18:47:45;16.12;;;14.40;;
64791;SDS011;51226;47.504;19.074;2022-11-23T18:50:47;15.87;;;13.83;;
64791;SDS011;51226;47.504;19.074;2022-11-23T18:53:50;15.15;;;13.55;;
64791;SDS011;51226;47.504;19.074;2022-11-23T18:59:57;16.30;;;13.60;;
64791;SDS011;51226;47.504;19.074;2022-11-23T19:03:00;15.35;;;12.10;;
64791;SDS011;51226;47.504;19.074;2022-11-23T19:06:04;16.00;;;13.10;;
64791;SDS011;51226;47.504;19.074;2022-11-23T19:12:12;14.05;;;12.57;;
64791;SDS011;51226;47.504;19.074;2022-11-23T19:15:15;12.93;;;11.63;;
64791;SDS011;51226;47.504;19.074;2022-11-23T19:18:18;12.68;;;11.32;;
64791;SDS011;51226;47.504;19.074;2022-11-23T19:21:22;14.83;;;11.97;;
64791;SDS011;51226;47.504;19.074;2022-11-23T19:24:26;13.60;;;12.05;;
64791;SDS011;51226;47.504;19.074;2022-11-23T19:27:32;15.63;;;12.53;;
64791;SDS011;51226;47.504;19.074;2022-11-23T19:30:37;14.18;;;11.20;;
64791;SDS011;51226;47.504;19.074;2022-11-23T19:33:40;14.47;;;11.50;;
64791;SDS011;51226;47.504;19.074;2022-11-23T19:36:44;12.48;;;10.80;;
64791;SDS011;51226;47.504;19.074;2022-11-23T19:39:47;12.43;;;11.23;;
64791;SDS011;51226;47.504;19.074;2022-11-23T19:42:50;11.77;;;10.57;;
64791;SDS011;51226;47.504;19.074;2022-11-23T19:45:53;12.70;;;11.13;;
64791;SDS011;51226;47.504;19.074;2022-11-23T19:48:58;12.48;;;10.23;;
64791;SDS011;51226;47.504;19.074;2022-11-23T19:52:01;12.68;;;10.63;;
64791;SDS011;51226;47.504;19.074;2022-11-23T19:55:05;10.90;;;9.80;;
64791;SDS011;51226;47.504;19.074;2022-11-23T19:58:09;12.30;;;9.98;;
64791;SDS011;51226;47.504;19.074;2022-11-23T20:01:15;12.02;;;9.50;;
64791;SDS011;51226;47.504;19.074;2022-11-23T20:04:20;12.63;;;10.20;;
64791;SDS011;51226;47.504;19.074;2022-11-23T20:07:23;12.63;;;10.48;;
64791;SDS011;51226;47.504;19.074;2022-11-23T20:10:25;10.13;;;9.13;;
64791;SDS011;51226;47.504;19.074;2022-11-23T20:13:28;10.63;;;8.45;;
64791;SDS011;51226;47.504;19.074;2022-11-23T20:16:31;10.98;;;8.35;;
64791;SDS011;51226;47.504;19.074;2022-11-23T20:19:34;13.10;;;10.13;;
64791;SDS011;51226;47.504;19.074;2022-11-23T20:22:37;11.88;;;9.55;;
64791;SDS011;51226;47.504;19.074;2022-11-23T20:25:40;10.32;;;8.32;;
64791;SDS011;51226;47.504;19.074;2022-11-23T20:28:45;10.45;;;9.32;;
64791;SDS011;51226;47.504;19.074;2022-11-23T20:31:52;11.25;;;9.32;;
64791;SDS011;51226;47.504;19.074;2022-11-23T20:34:55;9.68;;;8.68;;
64791;SDS011;51226;47.504;19.074;2022-11-23T20:37:58;12.63;;;9.15;;
64791;SDS011;51226;47.504;19.074;2022-11-23T20:41:09;10.40;;;9.20;;
64791;SDS011;51226;47.504;19.074;2022-11-23T20:44:16;10.43;;;9.32;;
64791;SDS011;51226;47.504;19.074;2022-11-23T20:50:24;11.43;;;9.77;;
64791;SDS011;51226;47.504;19.074;2022-11-23T20:53:30;11.20;;;9.77;;
64791;SDS011;51226;47.504;19.074;2022-11-23T20:56:33;12.35;;;9.93;;